sensor_id;sensor_type;location;lat;lon;timestamp;P1;durP1;ratioP1;P2;durP2;ratioP2
23496;SDS011;11925;48.122;11.560;2024-01-30T00:02:25;9.35;;;5.00;;
23496;SDS011;11925;48.122;11.560;2024-01-30T00:04:54;7.20;;;4.32;;
23496;SDS011;11925;48.122;11.560;2024-01-30T00:07:23;9.63;;;4.82;;
23496;SDS011;11925;48.122;11.560;2024-01-30T00:09:51;7.40;;;4.40;;
23496;SDS011;11925;48.122;11.560;2024-01-30T00:12:20;7.10;;;4.05;;
23496;SDS011;11925;48.122;11.560;2024-01-30T00:14:48;6.22;;;4.70;;
23496;SDS011;11925;48.122;11.560;2024-01-30T00:17:20;8.60;;;4.40;;
23496;SDS011;11925;48.122;11.560;2024-01-30T00:19:50;9.38;;;4.70;;
23496;SDS011;11925;48.122;11.560;2024-01-30T00:22:19;9.48;;;4.60;;
23496;SDS011;11925;48.122;11.560;2024-01-30T00:24:47;8.15;;;4.25;;
23496;SDS011;11925;48.122;11.560;2024-01-30T00:27:16;6.28;;;4.28;;
23496;SDS011;11925;48.122;11.560;2024-01-30T00:29:44;7.78;;;4.53;;
23496;SDS011;11925;48.122;11.560;2024-01-30T00:32:13;7.78;;;4.28;;
23496;SDS011;11925;48.122;11.560;2024-01-30T00:34:41;8.98;;;4.97;;
23496;SDS011;11925;48.122;11.560;2024-01-30T00:37:11;7.53;;;4.03;;
23496;SDS011;11925;48.122;11.560;2024-01-30T00:39:40;5.93;;;4.10;;
23496;SDS011;11925;48.122;11.560;2024-01-30T00:42:08;6.88;;;3.92;;
23496;SDS011;11925;48.122;11.560;2024-01-30T00:44:37;9.15;;;4.47;;
23496;SDS011;11925;48.122;11.560;2024-01-30T00:47:05;6.65;;;4.35;;
23496;SDS011;11925;48.122;11.560;2024-01-30T00:49:34;7.10;;;5.03;;
23496;SDS011;11925;48.122;11.560;2024-01-30T00:52:04;9.60;;;4.63;;
23496;SDS011;11925;48.122;11.560;2024-01-30T00:54:34;7.70;;;4.38;;
23496;SDS011;11925;48.122;11.560;2024-01-30T00:57:02;9.88;;;4.50;;
23496;SDS011;11925;48.122;11.560;2024-01-30T00:59:31;8.50;;;4.20;;
23496;SDS011;11925;48.122;11.560;2024-01-30T01:02:00;6.38;;;4.40;;
23496;SDS011;11925;48.122;11.560;2024-01-30T01:04:28;7.28;;;4.22;;
23496;SDS011;11925;48.122;11.560;2024-01-30T01:06:57;10.75;;;5.13;;
23496;SDS011;11925;48.122;11.560;2024-01-30T01:09:25;9.63;;;4.97;;
23496;SDS011;11925;48.122;11.560;2024-01-30T01:11:55;8.05;;;4.80;;
23496;SDS011;11925;48.122;11.560;2024-01-30T01:14:24;9.35;;;5.10;;
23496;SDS011;11925;48.122;11.560;2024-01-30T01:16:52;8.70;;;4.45;;
23496;SDS011;11925;48.122;11.560;2024-01-30T01:19:21;8.45;;;5.05;;
23496;SDS011;11925;48.122;11.560;2024-01-30T01:21:49;7.88;;;4.65;;
23496;SDS011;11925;48.122;11.560;2024-01-30T01:24:18;6.07;;;4.20;;
23496;SDS011;11925;48.122;11.560;2024-01-30T01:26:47;6.50;;;4.43;;
23496;SDS011;11925;48.122;11.560;2024-01-30T01:29:17;9.15;;;4.40;;
23496;SDS011;11925;48.122;11.560;2024-01-30T01:31:45;7.32;;;4.32;;
23496;SDS011;11925;48.122;11.560;2024-01-30T01:34:13;8.43;;;4.13;;
23496;SDS011;11925;48.122;11.560;2024-01-30T01:36:42;7.55;;;4.43;;
23496;SDS011;11925;48.122;11.560;2024-01-30T01:39:10;8.60;;;4.80;;
23496;SDS011;11925;48.122;11.560;2024-01-30T01:41:39;6.85;;;4.25;;
23496;SDS011;11925;48.122;11.560;2024-01-30T01:44:08;7.70;;;4.63;;
23496;SDS011;11925;48.122;11.560;2024-01-30T01:46:38;9.75;;;4.45;;
23496;SDS011;11925;48.122;11.560;2024-01-30T01:49:06;7.28;;;4.55;;
23496;SDS011;11925;48.122;11.560;2024-01-30T01:51:36;11.02;;;4.53;;
23496;SDS011;11925;48.122;11.560;2024-01-30T01:54:06;5.93;;;3.88;;
23496;SDS011;11925;48.122;11.560;2024-01-30T01:56:35;7.30;;;4.18;;
23496;SDS011;11925;48.122;11.560;2024-01-30T01:59:05;7.90;;;4.78;;
23496;SDS011;11925;48.122;11.560;2024-01-30T02:01:34;8.07;;;3.97;;
23496;SDS011;11925;48.122;11.560;2024-01-30T02:04:07;6.53;;;3.92;;
23496;SDS011;11925;48.122;11.560;2024-01-30T02:06:36;7.85;;;4.20;;
23496;SDS011;11925;48.122;11.560;2024-01-30T02:09:05;5.57;;;3.83;;
23496;SDS011;11925;48.122;11.560;2024-01-30T02:11:35;7.78;;;4.30;;
23496;SDS011;11925;48.122;11.560;2024-01-30T02:14:04;7.85;;;4.03;;
23496;SDS011;11925;48.122;11.560;2024-01-30T02:16:34;6.95;;;4.43;;
23496;SDS011;11925;48.122;11.560;2024-01-30T02:19:04;6.93;;;4.47;;
23496;SDS011;11925;48.122;11.560;2024-01-30T02:21:35;6.88;;;4.13;;
23496;SDS011;11925;48.122;11.560;2024-01-30T02:24:04;7.85;;;4.70;;
23496;SDS011;11925;48.122;11.560;2024-01-30T02:26:33;8.00;;;4.18;;
23496;SDS011;11925;48.122;11.560;2024-01-30T02:29:02;8.48;;;3.90;;
23496;SDS011;11925;48.122;11.560;2024-01-30T02:31:30;5.05;;;3.70;;
23496;SDS011;11925;48.122;11.560;2024-01-30T02:33:58;7.82;;;4.03;;
23496;SDS011;11925;48.122;11.560;2024-01-30T02:36:27;7.65;;;4.00;;
23496;SDS011;11925;48.122;11.560;2024-01-30T02:38:57;6.40;;;3.58;;
23496;SDS011;11925;48.122;11.560;2024-01-30T02:41:25;6.28;;;3.65;;
23496;SDS011;11925;48.122;11.560;2024-01-30T02:43:54;6.55;;;3.90;;
23496;SDS011;11925;48.122;11.560;2024-01-30T02:46:22;7.32;;;3.55;;
23496;SDS011;11925;48.122;11.560;2024-01-30T02:48:50;6.15;;;3.97;;
23496;SDS011;11925;48.122;11.560;2024-01-30T02:51:19;7.28;;;4.10;;
23496;SDS011;11925;48.122;11.560;2024-01-30T02:53:47;9.13;;;4.53;;
23496;SDS011;11925;48.122;11.560;2024-01-30T02:56:17;5.43;;;3.40;;
23496;SDS011;11925;48.122;11.560;2024-01-30T02:58:46;5.78;;;3.75;;
23496;SDS011;11925;48.122;11.560;2024-01-30T03:01:14;7.40;;;3.95;;
23496;SDS011;11925;48.122;11.560;2024-01-30T03:03:43;6.20;;;3.63;;
23496;SDS011;11925;48.122;11.560;2024-01-30T03:06:11;5.68;;;3.65;;
23496;SDS011;11925;48.122;11.560;2024-01-30T03:08:41;5.65;;;3.80;;
23496;SDS011;11925;48.122;11.560;2024-01-30T03:11:10;7.97;;;3.92;;
23496;SDS011;11925;48.122;11.560;2024-01-30T03:13:39;5.65;;;3.80;;
23496;SDS011;11925;48.122;11.560;2024-01-30T03:16:08;6.25;;;4.05;;
23496;SDS011;11925;48.122;11.560;2024-01-30T03:18:36;7.18;;;4.00;;
23496;SDS011;11925;48.122;11.560;2024-01-30T03:21:05;7.22;;;3.72;;
23496;SDS011;11925;48.122;11.560;2024-01-30T03:23:33;7.22;;;3.75;;
23496;SDS011;11925;48.122;11.560;2024-01-30T03:26:02;5.50;;;3.70;;
23496;SDS011;11925;48.122;11.560;2024-01-30T03:28:33;5.82;;;4.00;;
23496;SDS011;11925;48.122;11.560;2024-01-30T03:31:03;5.05;;;3.25;;
23496;SDS011;11925;48.122;11.560;2024-01-30T03:33:31;8.52;;;4.10;;
23496;SDS011;11925;48.122;11.560;2024-01-30T03:36:02;5.65;;;3.88;;
23496;SDS011;11925;48.122;11.560;2024-01-30T03:38:32;5.90;;;4.05;;
23496;SDS011;11925;48.122;11.560;2024-01-30T03:41:02;6.00;;;3.60;;
23496;SDS011;11925;48.122;11.560;2024-01-30T03:43:31;5.75;;;3.35;;
23496;SDS011;11925;48.122;11.560;2024-01-30T03:46:00;5.38;;;3.58;;
23496;SDS011;11925;48.122;11.560;2024-01-30T03:48:30;5.80;;;3.75;;
23496;SDS011;11925;48.122;11.560;2024-01-30T03:50:59;5.93;;;3.40;;
23496;SDS011;11925;48.122;11.560;2024-01-30T03:53:27;6.80;;;3.55;;
23496;SDS011;11925;48.122;11.560;2024-01-30T03:55:56;7.32;;;3.58;;
23496;SDS011;11925;48.122;11.560;2024-01-30T03:58:24;6.25;;;3.85;;
23496;SDS011;11925;48.122;11.560;2024-01-30T04:00:53;7.45;;;3.95;;
23496;SDS011;11925;48.122;11.560;2024-01-30T04:03:23;5.80;;;3.83;;
23496;SDS011;11925;48.122;11.560;2024-01-30T04:05:51;6.95;;;3.95;;
23496;SDS011;11925;48.122;11.560;2024-01-30T04:08:20;7.47;;;3.45;;
23496;SDS011;11925;48.122;11.560;2024-01-30T04:10:48;6.20;;;3.30;;
23496;SDS011;11925;48.122;11.560;2024-01-30T04:13:17;6.50;;;3.60;;
23496;SDS011;11925;48.122;11.560;2024-01-30T04:15:45;6.45;;;3.63;;
23496;SDS011;11925;48.122;11.560;2024-01-30T04:18:14;6.43;;;3.72;;
23496;SDS011;11925;48.122;11.560;2024-01-30T04:20:43;7.03;;;3.90;;
23496;SDS011;11925;48.122;11.560;2024-01-30T04:23:13;5.13;;;3.10;;
23496;SDS011;11925;48.122;11.560;2024-01-30T04:25:41;6.35;;;3.28;;
23496;SDS011;11925;48.122;11.560;2024-01-30T04:28:10;5.78;;;3.70;;
23496;SDS011;11925;48.122;11.560;2024-01-30T04:30:39;5.85;;;3.25;;
23496;SDS011;11925;48.122;11.560;2024-01-30T04:33:08;5.13;;;3.50;;
23496;SDS011;11925;48.122;11.560;2024-01-30T04:35:37;7.82;;;3.20;;
23496;SDS011;11925;48.122;11.560;2024-01-30T04:38:07;5.85;;;3.40;;
23496;SDS011;11925;48.122;11.560;2024-01-30T04:40:36;6.00;;;3.22;;
23496;SDS011;11925;48.122;11.560;2024-01-30T04:43:04;5.22;;;3.15;;
23496;SDS011;11925;48.122;11.560;2024-01-30T04:45:33;4.47;;;3.42;;
23496;SDS011;11925;48.122;11.560;2024-01-30T04:48:01;5.30;;;3.78;;
23496;SDS011;11925;48.122;11.560;2024-01-30T04:50:30;6.25;;;3.47;;
23496;SDS011;11925;48.122;11.560;2024-01-30T04:52:58;4.97;;;3.08;;
23496;SDS011;11925;48.122;11.560;2024-01-30T04:55:28;5.15;;;3.10;;
23496;SDS011;11925;48.122;11.560;2024-01-30T04:57:56;4.95;;;3.33;;
23496;SDS011;11925;48.122;11.560;2024-01-30T05:00:25;4.80;;;3.50;;
23496;SDS011;11925;48.122;11.560;2024-01-30T05:02:54;5.57;;;2.95;;
23496;SDS011;11925;48.122;11.560;2024-01-30T05:05:23;5.43;;;3.30;;
23496;SDS011;11925;48.122;11.560;2024-01-30T05:07:51;5.72;;;3.50;;
23496;SDS011;11925;48.122;11.560;2024-01-30T05:10:20;7.28;;;3.42;;
23496;SDS011;11925;48.122;11.560;2024-01-30T05:12:50;5.20;;;3.75;;
23496;SDS011;11925;48.122;11.560;2024-01-30T05:15:18;6.18;;;3.25;;
23496;SDS011;11925;48.122;11.560;2024-01-30T05:17:47;4.50;;;3.08;;
23496;SDS011;11925;48.122;11.560;2024-01-30T05:20:16;4.80;;;2.90;;
23496;SDS011;11925;48.122;11.560;2024-01-30T05:22:45;5.18;;;3.45;;
23496;SDS011;11925;48.122;11.560;2024-01-30T05:25:13;4.25;;;2.65;;
23496;SDS011;11925;48.122;11.560;2024-01-30T05:27:42;4.70;;;2.83;;
23496;SDS011;11925;48.122;11.560;2024-01-30T05:30:12;4.53;;;3.10;;
23496;SDS011;11925;48.122;11.560;2024-01-30T05:32:41;5.00;;;3.03;;
23496;SDS011;11925;48.122;11.560;2024-01-30T05:35:11;8.00;;;3.28;;
23496;SDS011;11925;48.122;11.560;2024-01-30T05:37:39;7.35;;;3.20;;
23496;SDS011;11925;48.122;11.560;2024-01-30T05:40:08;4.88;;;2.83;;
23496;SDS011;11925;48.122;11.560;2024-01-30T05:42:37;4.70;;;2.88;;
23496;SDS011;11925;48.122;11.560;2024-01-30T05:45:08;4.78;;;3.00;;
23496;SDS011;11925;48.122;11.560;2024-01-30T05:47:38;5.50;;;3.28;;
23496;SDS011;11925;48.122;11.560;2024-01-30T05:50:07;6.30;;;3.00;;
23496;SDS011;11925;48.122;11.560;2024-01-30T05:52:36;5.07;;;3.00;;
23496;SDS011;11925;48.122;11.560;2024-01-30T05:55:04;4.80;;;2.95;;
23496;SDS011;11925;48.122;11.560;2024-01-30T05:57:33;5.05;;;3.00;;
23496;SDS011;11925;48.122;11.560;2024-01-30T06:00:01;7.13;;;3.10;;
23496;SDS011;11925;48.122;11.560;2024-01-30T06:02:32;5.72;;;2.95;;
23496;SDS011;11925;48.122;11.560;2024-01-30T06:05:01;4.90;;;2.80;;
23496;SDS011;11925;48.122;11.560;2024-01-30T06:07:31;4.13;;;2.55;;
23496;SDS011;11925;48.122;11.560;2024-01-30T06:10:03;5.50;;;3.28;;
23496;SDS011;11925;48.122;11.560;2024-01-30T06:12:32;5.38;;;3.22;;
23496;SDS011;11925;48.122;11.560;2024-01-30T06:15:00;5.72;;;3.10;;
23496;SDS011;11925;48.122;11.560;2024-01-30T06:17:31;7.30;;;3.60;;
23496;SDS011;11925;48.122;11.560;2024-01-30T06:19:59;5.55;;;3.25;;
23496;SDS011;11925;48.122;11.560;2024-01-30T06:22:29;5.32;;;3.20;;
23496;SDS011;11925;48.122;11.560;2024-01-30T06:24:58;8.18;;;3.70;;
23496;SDS011;11925;48.122;11.560;2024-01-30T06:27:26;6.40;;;3.40;;
23496;SDS011;11925;48.122;11.560;2024-01-30T06:29:55;6.55;;;3.50;;
23496;SDS011;11925;48.122;11.560;2024-01-30T06:32:23;5.07;;;2.83;;
23496;SDS011;11925;48.122;11.560;2024-01-30T06:34:52;5.40;;;3.20;;
23496;SDS011;11925;48.122;11.560;2024-01-30T06:37:22;5.80;;;3.35;;
23496;SDS011;11925;48.122;11.560;2024-01-30T06:39:50;6.55;;;3.47;;
23496;SDS011;11925;48.122;11.560;2024-01-30T06:42:19;7.97;;;3.22;;
23496;SDS011;11925;48.122;11.560;2024-01-30T06:44:48;6.97;;;2.97;;
23496;SDS011;11925;48.122;11.560;2024-01-30T06:47:16;5.97;;;2.88;;
23496;SDS011;11925;48.122;11.560;2024-01-30T06:49:45;6.00;;;2.58;;
23496;SDS011;11925;48.122;11.560;2024-01-30T06:52:13;6.35;;;2.40;;
23496;SDS011;11925;48.122;11.560;2024-01-30T06:54:43;5.18;;;2.90;;
23496;SDS011;11925;48.122;11.560;2024-01-30T06:57:12;4.03;;;2.33;;
23496;SDS011;11925;48.122;11.560;2024-01-30T06:59:40;3.45;;;2.00;;
23496;SDS011;11925;48.122;11.560;2024-01-30T07:02:10;3.70;;;2.30;;
23496;SDS011;11925;48.122;11.560;2024-01-30T07:04:39;5.13;;;2.53;;
23496;SDS011;11925;48.122;11.560;2024-01-30T07:07:13;5.22;;;2.55;;
23496;SDS011;11925;48.122;11.560;2024-01-30T07:09:43;4.10;;;2.38;;
23496;SDS011;11925;48.122;11.560;2024-01-30T07:12:14;4.97;;;2.88;;
23496;SDS011;11925;48.122;11.560;2024-01-30T07:14:42;4.57;;;2.75;;
23496;SDS011;11925;48.122;11.560;2024-01-30T07:17:11;5.00;;;2.97;;
23496;SDS011;11925;48.122;11.560;2024-01-30T07:19:39;5.70;;;2.70;;
23496;SDS011;11925;48.122;11.560;2024-01-30T07:22:08;7.07;;;3.70;;
23496;SDS011;11925;48.122;11.560;2024-01-30T07:24:41;6.25;;;3.33;;
23496;SDS011;11925;48.122;11.560;2024-01-30T07:27:15;6.20;;;3.30;;
23496;SDS011;11925;48.122;11.560;2024-01-30T07:29:44;5.38;;;3.15;;
23496;SDS011;11925;48.122;11.560;2024-01-30T07:32:13;6.55;;;2.80;;
23496;SDS011;11925;48.122;11.560;2024-01-30T07:34:41;4.75;;;3.03;;
23496;SDS011;11925;48.122;11.560;2024-01-30T07:37:28;5.13;;;2.80;;
23496;SDS011;11925;48.122;11.560;2024-01-30T07:39:58;5.90;;;2.78;;
23496;SDS011;11925;48.122;11.560;2024-01-30T07:42:27;7.07;;;3.00;;
23496;SDS011;11925;48.122;11.560;2024-01-30T07:44:55;4.53;;;2.58;;
23496;SDS011;11925;48.122;11.560;2024-01-30T07:47:23;4.57;;;2.42;;
23496;SDS011;11925;48.122;11.560;2024-01-30T07:49:52;5.45;;;2.42;;
23496;SDS011;11925;48.122;11.560;2024-01-30T07:52:21;6.65;;;2.20;;
23496;SDS011;11925;48.122;11.560;2024-01-30T07:54:49;7.40;;;2.55;;
23496;SDS011;11925;48.122;11.560;2024-01-30T07:57:20;5.32;;;2.47;;
23496;SDS011;11925;48.122;11.560;2024-01-30T07:59:48;5.93;;;2.35;;
23496;SDS011;11925;48.122;11.560;2024-01-30T08:02:17;4.72;;;2.67;;
23496;SDS011;11925;48.122;11.560;2024-01-30T08:04:45;5.05;;;2.70;;
23496;SDS011;11925;48.122;11.560;2024-01-30T08:07:16;4.60;;;2.43;;
23496;SDS011;11925;48.122;11.560;2024-01-30T08:09:45;5.38;;;2.65;;
23496;SDS011;11925;48.122;11.560;2024-01-30T08:12:13;3.85;;;2.10;;
23496;SDS011;11925;48.122;11.560;2024-01-30T08:14:43;5.45;;;2.13;;
23496;SDS011;11925;48.122;11.560;2024-01-30T08:17:11;5.15;;;1.95;;
23496;SDS011;11925;48.122;11.560;2024-01-30T08:19:40;4.93;;;2.40;;
23496;SDS011;11925;48.122;11.560;2024-01-30T08:22:08;4.90;;;2.55;;
23496;SDS011;11925;48.122;11.560;2024-01-30T08:24:37;3.88;;;2.03;;
23496;SDS011;11925;48.122;11.560;2024-01-30T08:27:07;4.20;;;2.20;;
23496;SDS011;11925;48.122;11.560;2024-01-30T08:29:36;3.88;;;2.25;;
23496;SDS011;11925;48.122;11.560;2024-01-30T08:32:06;4.95;;;2.47;;
23496;SDS011;11925;48.122;11.560;2024-01-30T08:34:34;5.55;;;2.50;;
23496;SDS011;11925;48.122;11.560;2024-01-30T08:37:03;6.20;;;2.47;;
23496;SDS011;11925;48.122;11.560;2024-01-30T08:39:32;3.72;;;2.38;;
23496;SDS011;11925;48.122;11.560;2024-01-30T08:42:01;3.65;;;2.10;;
23496;SDS011;11925;48.122;11.560;2024-01-30T08:44:29;5.78;;;2.42;;
23496;SDS011;11925;48.122;11.560;2024-01-30T08:46:57;4.15;;;2.25;;
23496;SDS011;11925;48.122;11.560;2024-01-30T08:49:27;4.28;;;2.55;;
23496;SDS011;11925;48.122;11.560;2024-01-30T08:51:56;4.20;;;2.42;;
23496;SDS011;11925;48.122;11.560;2024-01-30T08:54:24;5.95;;;3.28;;
23496;SDS011;11925;48.122;11.560;2024-01-30T08:56:53;6.95;;;3.08;;
23496;SDS011;11925;48.122;11.560;2024-01-30T08:59:23;6.57;;;3.17;;
23496;SDS011;11925;48.122;11.560;2024-01-30T09:01:51;5.72;;;3.28;;
23496;SDS011;11925;48.122;11.560;2024-01-30T09:04:38;10.13;;;3.83;;
23496;SDS011;11925;48.122;11.560;2024-01-30T09:07:08;6.18;;;3.53;;
23496;SDS011;11925;48.122;11.560;2024-01-30T09:09:37;7.20;;;3.60;;
23496;SDS011;11925;48.122;11.560;2024-01-30T09:12:07;6.55;;;3.70;;
23496;SDS011;11925;48.122;11.560;2024-01-30T09:14:38;6.43;;;3.78;;
23496;SDS011;11925;48.122;11.560;2024-01-30T09:17:08;6.38;;;3.72;;
23496;SDS011;11925;48.122;11.560;2024-01-30T09:19:38;6.18;;;3.47;;
23496;SDS011;11925;48.122;11.560;2024-01-30T09:24:36;6.63;;;3.63;;
23496;SDS011;11925;48.122;11.560;2024-01-30T09:27:05;4.65;;;2.95;;
23496;SDS011;11925;48.122;11.560;2024-01-30T09:29:33;4.95;;;3.03;;
23496;SDS011;11925;48.122;11.560;2024-01-30T09:32:03;4.65;;;3.30;;
23496;SDS011;11925;48.122;11.560;2024-01-30T09:34:33;5.88;;;3.35;;
23496;SDS011;11925;48.122;11.560;2024-01-30T09:37:03;5.78;;;3.35;;
23496;SDS011;11925;48.122;11.560;2024-01-30T09:39:32;6.30;;;3.13;;
23496;SDS011;11925;48.122;11.560;2024-01-30T09:42:02;6.45;;;3.63;;
23496;SDS011;11925;48.122;11.560;2024-01-30T09:44:38;5.45;;;3.25;;
23496;SDS011;11925;48.122;11.560;2024-01-30T09:47:09;5.38;;;3.55;;
23496;SDS011;11925;48.122;11.560;2024-01-30T09:49:38;6.68;;;3.35;;
23496;SDS011;11925;48.122;11.560;2024-01-30T09:52:11;5.53;;;3.60;;
23496;SDS011;11925;48.122;11.560;2024-01-30T09:54:40;8.55;;;3.72;;
23496;SDS011;11925;48.122;11.560;2024-01-30T09:57:10;6.22;;;3.75;;
23496;SDS011;11925;48.122;11.560;2024-01-30T09:59:41;6.82;;;3.92;;
23496;SDS011;11925;48.122;11.560;2024-01-30T10:02:10;6.18;;;3.60;;
23496;SDS011;11925;48.122;11.560;2024-01-30T10:04:39;6.15;;;3.70;;
23496;SDS011;11925;48.122;11.560;2024-01-30T10:07:07;5.03;;;3.58;;
23496;SDS011;11925;48.122;11.560;2024-01-30T10:09:40;6.72;;;3.47;;
23496;SDS011;11925;48.122;11.560;2024-01-30T10:12:09;6.05;;;3.90;;
23496;SDS011;11925;48.122;11.560;2024-01-30T10:14:38;7.03;;;3.45;;
23496;SDS011;11925;48.122;11.560;2024-01-30T10:17:07;6.30;;;3.25;;
23496;SDS011;11925;48.122;11.560;2024-01-30T10:19:47;8.40;;;3.45;;
23496;SDS011;11925;48.122;11.560;2024-01-30T10:22:17;5.35;;;3.05;;
23496;SDS011;11925;48.122;11.560;2024-01-30T10:24:46;6.03;;;3.05;;
23496;SDS011;11925;48.122;11.560;2024-01-30T10:27:15;7.63;;;2.85;;
23496;SDS011;11925;48.122;11.560;2024-01-30T10:29:48;5.30;;;2.70;;
23496;SDS011;11925;48.122;11.560;2024-01-30T10:32:17;4.82;;;2.95;;
23496;SDS011;11925;48.122;11.560;2024-01-30T10:34:45;6.63;;;3.03;;
23496;SDS011;11925;48.122;11.560;2024-01-30T10:37:15;4.13;;;2.40;;
23496;SDS011;11925;48.122;11.560;2024-01-30T10:39:45;6.35;;;2.88;;
23496;SDS011;11925;48.122;11.560;2024-01-30T10:42:14;5.40;;;2.60;;
23496;SDS011;11925;48.122;11.560;2024-01-30T10:44:47;5.23;;;2.53;;
23496;SDS011;11925;48.122;11.560;2024-01-30T10:47:26;7.38;;;2.92;;
23496;SDS011;11925;48.122;11.560;2024-01-30T10:49:55;5.55;;;3.35;;
23496;SDS011;11925;48.122;11.560;2024-01-30T10:52:25;5.15;;;2.65;;
23496;SDS011;11925;48.122;11.560;2024-01-30T10:54:57;5.40;;;3.00;;
23496;SDS011;11925;48.122;11.560;2024-01-30T10:57:27;6.13;;;2.83;;
23496;SDS011;11925;48.122;11.560;2024-01-30T10:59:56;4.20;;;2.60;;
23496;SDS011;11925;48.122;11.560;2024-01-30T11:02:26;6.07;;;3.80;;
23496;SDS011;11925;48.122;11.560;2024-01-30T11:04:56;5.25;;;3.08;;
23496;SDS011;11925;48.122;11.560;2024-01-30T11:07:26;6.30;;;2.70;;
23496;SDS011;11925;48.122;11.560;2024-01-30T11:10:01;6.00;;;2.83;;
23496;SDS011;11925;48.122;11.560;2024-01-30T11:12:31;5.90;;;3.10;;
23496;SDS011;11925;48.122;11.560;2024-01-30T11:15:04;6.50;;;3.05;;
23496;SDS011;11925;48.122;11.560;2024-01-30T11:17:41;6.03;;;3.55;;
23496;SDS011;11925;48.122;11.560;2024-01-30T11:20:10;6.90;;;3.75;;
23496;SDS011;11925;48.122;11.560;2024-01-30T11:22:42;8.02;;;3.78;;
23496;SDS011;11925;48.122;11.560;2024-01-30T11:25:14;9.73;;;3.47;;
23496;SDS011;11925;48.122;11.560;2024-01-30T11:27:43;6.75;;;3.40;;
23496;SDS011;11925;48.122;11.560;2024-01-30T11:30:20;5.22;;;3.22;;
23496;SDS011;11925;48.122;11.560;2024-01-30T11:33:04;8.07;;;3.35;;
23496;SDS011;11925;48.122;11.560;2024-01-30T11:35:35;5.55;;;3.30;;
23496;SDS011;11925;48.122;11.560;2024-01-30T11:38:07;5.78;;;3.72;;
23496;SDS011;11925;48.122;11.560;2024-01-30T11:40:38;4.47;;;3.13;;
23496;SDS011;11925;48.122;11.560;2024-01-30T11:43:07;6.50;;;2.85;;
23496;SDS011;11925;48.122;11.560;2024-01-30T11:45:36;6.55;;;3.42;;
23496;SDS011;11925;48.122;11.560;2024-01-30T11:48:06;5.55;;;3.40;;
23496;SDS011;11925;48.122;11.560;2024-01-30T11:50:37;7.35;;;3.33;;
23496;SDS011;11925;48.122;11.560;2024-01-30T11:53:07;5.80;;;3.00;;
23496;SDS011;11925;48.122;11.560;2024-01-30T11:55:35;4.28;;;2.95;;
23496;SDS011;11925;48.122;11.560;2024-01-30T11:58:05;5.95;;;3.20;;
23496;SDS011;11925;48.122;11.560;2024-01-30T12:00:34;7.53;;;2.95;;
23496;SDS011;11925;48.122;11.560;2024-01-30T12:03:03;6.28;;;3.25;;
23496;SDS011;11925;48.122;11.560;2024-01-30T12:05:33;5.60;;;3.10;;
23496;SDS011;11925;48.122;11.560;2024-01-30T12:08:05;4.22;;;2.60;;
23496;SDS011;11925;48.122;11.560;2024-01-30T12:10:34;5.07;;;2.53;;
23496;SDS011;11925;48.122;11.560;2024-01-30T12:13:04;5.03;;;2.63;;
23496;SDS011;11925;48.122;11.560;2024-01-30T12:15:33;3.88;;;2.50;;
23496;SDS011;11925;48.122;11.560;2024-01-30T12:18:05;4.10;;;2.38;;
23496;SDS011;11925;48.122;11.560;2024-01-30T12:20:34;3.45;;;2.38;;
23496;SDS011;11925;48.122;11.560;2024-01-30T12:23:03;3.85;;;2.08;;
23496;SDS011;11925;48.122;11.560;2024-01-30T12:25:32;6.60;;;2.47;;
23496;SDS011;11925;48.122;11.560;2024-01-30T12:28:01;3.90;;;2.30;;
23496;SDS011;11925;48.122;11.560;2024-01-30T12:30:31;4.60;;;2.13;;
23496;SDS011;11925;48.122;11.560;2024-01-30T12:32:59;3.03;;;1.85;;
23496;SDS011;11925;48.122;11.560;2024-01-30T12:38:00;3.47;;;2.15;;
23496;SDS011;11925;48.122;11.560;2024-01-30T12:40:28;4.47;;;2.20;;
23496;SDS011;11925;48.122;11.560;2024-01-30T12:42:57;6.30;;;2.47;;
23496;SDS011;11925;48.122;11.560;2024-01-30T12:45:25;4.32;;;2.00;;
23496;SDS011;11925;48.122;11.560;2024-01-30T12:47:55;3.10;;;2.20;;
23496;SDS011;11925;48.122;11.560;2024-01-30T12:50:25;3.27;;;2.30;;
23496;SDS011;11925;48.122;11.560;2024-01-30T12:52:53;3.40;;;2.00;;
23496;SDS011;11925;48.122;11.560;2024-01-30T12:55:22;5.03;;;2.40;;
23496;SDS011;11925;48.122;11.560;2024-01-30T12:57:55;5.05;;;2.22;;
23496;SDS011;11925;48.122;11.560;2024-01-30T13:00:23;3.35;;;2.03;;
23496;SDS011;11925;48.122;11.560;2024-01-30T13:02:52;2.88;;;1.55;;
23496;SDS011;11925;48.122;11.560;2024-01-30T13:05:21;2.53;;;1.60;;
23496;SDS011;11925;48.122;11.560;2024-01-30T13:07:51;3.70;;;1.90;;
23496;SDS011;11925;48.122;11.560;2024-01-30T13:10:19;3.83;;;1.92;;
23496;SDS011;11925;48.122;11.560;2024-01-30T13:12:48;3.42;;;1.77;;
23496;SDS011;11925;48.122;11.560;2024-01-30T13:15:16;4.82;;;1.80;;
23496;SDS011;11925;48.122;11.560;2024-01-30T13:17:45;2.60;;;1.33;;
23496;SDS011;11925;48.122;11.560;2024-01-30T13:20:14;2.53;;;1.20;;
23496;SDS011;11925;48.122;11.560;2024-01-30T13:22:48;4.63;;;1.73;;
23496;SDS011;11925;48.122;11.560;2024-01-30T13:25:17;3.87;;;1.87;;
23496;SDS011;11925;48.122;11.560;2024-01-30T13:27:45;4.97;;;1.60;;
23496;SDS011;11925;48.122;11.560;2024-01-30T13:30:14;2.50;;;1.55;;
23496;SDS011;11925;48.122;11.560;2024-01-30T13:32:42;3.50;;;1.50;;
23496;SDS011;11925;48.122;11.560;2024-01-30T13:35:12;3.85;;;1.75;;
23496;SDS011;11925;48.122;11.560;2024-01-30T13:37:41;3.40;;;1.80;;
23496;SDS011;11925;48.122;11.560;2024-01-30T13:40:11;5.53;;;2.10;;
23496;SDS011;11925;48.122;11.560;2024-01-30T13:42:41;4.97;;;2.00;;
23496;SDS011;11925;48.122;11.560;2024-01-30T13:45:09;3.40;;;1.80;;
23496;SDS011;11925;48.122;11.560;2024-01-30T13:47:38;3.05;;;1.60;;
23496;SDS011;11925;48.122;11.560;2024-01-30T13:50:06;4.63;;;1.60;;
23496;SDS011;11925;48.122;11.560;2024-01-30T13:52:37;3.73;;;1.43;;
23496;SDS011;11925;48.122;11.560;2024-01-30T13:55:12;3.53;;;1.67;;
23496;SDS011;11925;48.122;11.560;2024-01-30T13:57:41;3.17;;;1.80;;
23496;SDS011;11925;48.122;11.560;2024-01-30T14:00:10;3.95;;;1.67;;
23496;SDS011;11925;48.122;11.560;2024-01-30T14:02:42;5.05;;;1.88;;
23496;SDS011;11925;48.122;11.560;2024-01-30T14:05:11;7.00;;;1.92;;
23496;SDS011;11925;48.122;11.560;2024-01-30T14:07:40;4.15;;;1.45;;
23496;SDS011;11925;48.122;11.560;2024-01-30T14:10:12;5.22;;;1.95;;
23496;SDS011;11925;48.122;11.560;2024-01-30T14:12:42;3.15;;;1.60;;
23496;SDS011;11925;48.122;11.560;2024-01-30T14:15:11;2.50;;;1.33;;
23496;SDS011;11925;48.122;11.560;2024-01-30T14:17:54;4.57;;;1.50;;
23496;SDS011;11925;48.122;11.560;2024-01-30T14:20:23;2.72;;;1.40;;
23496;SDS011;11925;48.122;11.560;2024-01-30T14:22:51;4.43;;;1.40;;
23496;SDS011;11925;48.122;11.560;2024-01-30T14:25:24;3.40;;;1.70;;
23496;SDS011;11925;48.122;11.560;2024-01-30T14:27:52;2.13;;;1.55;;
23496;SDS011;11925;48.122;11.560;2024-01-30T14:30:21;3.45;;;2.13;;
23496;SDS011;11925;48.122;11.560;2024-01-30T14:32:50;3.65;;;1.65;;
23496;SDS011;11925;48.122;11.560;2024-01-30T14:35:19;3.05;;;1.75;;
23496;SDS011;11925;48.122;11.560;2024-01-30T14:37:48;5.18;;;2.10;;
23496;SDS011;11925;48.122;11.560;2024-01-30T14:40:17;4.35;;;2.28;;
23496;SDS011;11925;48.122;11.560;2024-01-30T14:42:47;3.95;;;2.40;;
23496;SDS011;11925;48.122;11.560;2024-01-30T14:45:16;6.28;;;2.15;;
23496;SDS011;11925;48.122;11.560;2024-01-30T14:47:45;4.68;;;2.70;;
23496;SDS011;11925;48.122;11.560;2024-01-30T14:50:14;3.97;;;2.50;;
23496;SDS011;11925;48.122;11.560;2024-01-30T14:52:44;4.03;;;2.70;;